sensor_id;sensor_type;location;lat;lon;timestamp;temperature;humidity
22235;DHT22;11286;45.596;5.284;2023-04-03T00:01:15;9.00;99.90
22235;DHT22;11286;45.596;5.284;2023-04-03T00:03:42;9.10;99.90
22235;DHT22;11286;45.596;5.284;2023-04-03T00:06:08;9.10;99.90
22235;DHT22;11286;45.596;5.284;2023-04-03T00:08:36;9.20;99.90
22235;DHT22;11286;45.596;5.284;2023-04-03T00:11:02;9.00;99.90
22235;DHT22;11286;45.596;5.284;2023-04-03T00:13:28;9.20;99.90
22235;DHT22;11286;45.596;5.284;2023-04-03T00:15:54;9.30;99.90
22235;DHT22;11286;45.596;5.284;2023-04-03T00:18:19;9.00;99.90
22235;DHT22;11286;45.596;5.284;2023-04-03T00:20:45;8.90;99.90
22235;DHT22;11286;45.596;5.284;2023-04-03T00:23:11;8.90;99.90
22235;DHT22;11286;45.596;5.284;2023-04-03T00:25:37;9.20;99.90
22235;DHT22;11286;45.596;5.284;2023-04-03T00:28:03;9.00;99.90
22235;DHT22;11286;45.596;5.284;2023-04-03T00:30:29;9.10;99.90
22235;DHT22;11286;45.596;5.284;2023-04-03T00:32:55;9.10;99.90
22235;DHT22;11286;45.596;5.284;2023-04-03T00:35:21;9.20;99.90
22235;DHT22;11286;45.596;5.284;2023-04-03T00:37:48;9.20;99.90
22235;DHT22;11286;45.596;5.284;2023-04-03T00:40:15;9.10;99.90
22235;DHT22;11286;45.596;5.284;2023-04-03T00:42:43;9.00;99.90
22235;DHT22;11286;45.596;5.284;2023-04-03T00:47:43;9.20;99.90
22235;DHT22;11286;45.596;5.284;2023-04-03T00:50:09;9.00;99.90
22235;DHT22;11286;45.596;5.284;2023-04-03T00:52:35;9.10;99.90
22235;DHT22;11286;45.596;5.284;2023-04-03T00:55:06;9.10;99.90
22235;DHT22;11286;45.596;5.284;2023-04-03T00:57:33;9.10;99.90
22235;DHT22;11286;45.596;5.284;2023-04-03T01:00:07;9.30;99.90
22235;DHT22;11286;45.596;5.284;2023-04-03T01:02:35;9.30;99.90
22235;DHT22;11286;45.596;5.284;2023-04-03T01:05:00;9.10;99.90
22235;DHT22;11286;45.596;5.284;2023-04-03T01:07:29;9.20;99.90
22235;DHT22;11286;45.596;5.284;2023-04-03T01:10:00;9.20;99.90
22235;DHT22;11286;45.596;5.284;2023-04-03T01:12:29;9.20;99.90
22235;DHT22;11286;45.596;5.284;2023-04-03T01:14:58;9.00;99.90
22235;DHT22;11286;45.596;5.284;2023-04-03T01:17:34;9.20;99.90
22235;DHT22;11286;45.596;5.284;2023-04-03T01:20:35;9.20;99.90
22235;DHT22;11286;45.596;5.284;2023-04-03T01:25:50;9.10;99.90
22235;DHT22;11286;45.596;5.284;2023-04-03T01:31:24;9.00;99.90
22235;DHT22;11286;45.596;5.284;2023-04-03T01:33:42;8.90;99.90
22235;DHT22;11286;45.596;5.284;2023-04-03T01:36:08;9.20;99.90
22235;DHT22;11286;45.596;5.284;2023-04-03T01:38:35;9.30;99.90
22235;DHT22;11286;45.596;5.284;2023-04-03T01:41:00;9.40;99.90
22235;DHT22;11286;45.596;5.284;2023-04-03T01:43:26;9.30;99.90
22235;DHT22;11286;45.596;5.284;2023-04-03T01:45:52;9.30;99.90
22235;DHT22;11286;45.596;5.284;2023-04-03T01:48:20;9.20;99.90
22235;DHT22;11286;45.596;5.284;2023-04-03T01:50:45;9.20;99.90
22235;DHT22;11286;45.596;5.284;2023-04-03T01:53:11;8.90;99.90
22235;DHT22;11286;45.596;5.284;2023-04-03T01:55:37;9.00;99.90
22235;DHT22;11286;45.596;5.284;2023-04-03T01:58:02;9.00;99.90
22235;DHT22;11286;45.596;5.284;2023-04-03T02:00:28;9.20;99.90
22235;DHT22;11286;45.596;5.284;2023-04-03T02:02:53;9.20;99.90
22235;DHT22;11286;45.596;5.284;2023-04-03T02:05:19;9.10;99.90
22235;DHT22;11286;45.596;5.284;2023-04-03T02:07:45;9.20;99.90
22235;DHT22;11286;45.596;5.284;2023-04-03T02:10:11;8.90;99.90
22235;DHT22;11286;45.596;5.284;2023-04-03T02:12:37;9.00;99.90
22235;DHT22;11286;45.596;5.284;2023-04-03T02:15:03;8.90;99.90
22235;DHT22;11286;45.596;5.284;2023-04-03T02:17:29;8.80;99.90
22235;DHT22;11286;45.596;5.284;2023-04-03T02:19:55;9.20;99.90
22235;DHT22;11286;45.596;5.284;2023-04-03T02:22:20;8.90;99.90
22235;DHT22;11286;45.596;5.284;2023-04-03T02:24:46;9.10;99.90
22235;DHT22;11286;45.596;5.284;2023-04-03T02:27:12;9.20;99.90
22235;DHT22;11286;45.596;5.284;2023-04-03T02:29:37;9.20;99.90
22235;DHT22;11286;45.596;5.284;2023-04-03T02:32:03;9.10;99.90
22235;DHT22;11286;45.596;5.284;2023-04-03T02:34:29;9.00;99.90
22235;DHT22;11286;45.596;5.284;2023-04-03T02:36:54;9.10;99.90
22235;DHT22;11286;45.596;5.284;2023-04-03T02:39:20;9.00;99.90
22235;DHT22;11286;45.596;5.284;2023-04-03T02:41:46;9.00;99.90
22235;DHT22;11286;45.596;5.284;2023-04-03T02:44:12;9.00;99.90
22235;DHT22;11286;45.596;5.284;2023-04-03T02:46:37;9.00;99.90
22235;DHT22;11286;45.596;5.284;2023-04-03T02:49:03;9.10;99.90
22235;DHT22;11286;45.596;5.284;2023-04-03T02:51:29;9.20;99.90
22235;DHT22;11286;45.596;5.284;2023-04-03T02:53:55;9.10;99.90
22235;DHT22;11286;45.596;5.284;2023-04-03T02:56:21;8.90;99.90
22235;DHT22;11286;45.596;5.284;2023-04-03T02:58:46;8.70;99.90
22235;DHT22;11286;45.596;5.284;2023-04-03T03:01:14;8.80;99.90
22235;DHT22;11286;45.596;5.284;2023-04-03T03:03:39;8.80;99.90
22235;DHT22;11286;45.596;5.284;2023-04-03T03:06:07;9.00;99.90
22235;DHT22;11286;45.596;5.284;2023-04-03T03:08:34;9.00;99.90
22235;DHT22;11286;45.596;5.284;2023-04-03T03:11:00;9.10;99.90
22235;DHT22;11286;45.596;5.284;2023-04-03T03:13:26;9.20;99.90
22235;DHT22;11286;45.596;5.284;2023-04-03T03:15:51;9.20;99.90
22235;DHT22;11286;45.596;5.284;2023-04-03T03:18:17;9.10;99.90
22235;DHT22;11286;45.596;5.284;2023-04-03T03:20:43;9.00;99.90
22235;DHT22;11286;45.596;5.284;2023-04-03T03:23:08;8.90;99.90
22235;DHT22;11286;45.596;5.284;2023-04-03T03:25:38;9.00;99.90
22235;DHT22;11286;45.596;5.284;2023-04-03T03:28:04;9.30;99.90
22235;DHT22;11286;45.596;5.284;2023-04-03T03:30:29;9.10;99.90
22235;DHT22;11286;45.596;5.284;2023-04-03T03:32:55;9.30;99.90
22235;DHT22;11286;45.596;5.284;2023-04-03T03:35:20;9.20;99.90
22235;DHT22;11286;45.596;5.284;2023-04-03T03:37:46;9.50;99.90
22235;DHT22;11286;45.596;5.284;2023-04-03T03:40:12;9.30;99.90
22235;DHT22;11286;45.596;5.284;2023-04-03T03:42:38;9.20;99.90
22235;DHT22;11286;45.596;5.284;2023-04-03T03:45:04;9.10;99.90
22235;DHT22;11286;45.596;5.284;2023-04-03T03:47:30;9.10;99.90
22235;DHT22;11286;45.596;5.284;2023-04-03T03:49:56;9.10;99.90
22235;DHT22;11286;45.596;5.284;2023-04-03T03:52:22;9.20;99.90
22235;DHT22;11286;45.596;5.284;2023-04-03T03:54:47;9.00;99.90
22235;DHT22;11286;45.596;5.284;2023-04-03T03:57:13;8.90;99.90
22235;DHT22;11286;45.596;5.284;2023-04-03T03:59:38;9.10;99.90
22235;DHT22;11286;45.596;5.284;2023-04-03T04:02:07;9.10;99.90
22235;DHT22;11286;45.596;5.284;2023-04-03T04:04:32;9.00;99.90
22235;DHT22;11286;45.596;5.284;2023-04-03T04:06:58;9.10;99.90
22235;DHT22;11286;45.596;5.284;2023-04-03T04:09:26;8.90;99.90
22235;DHT22;11286;45.596;5.284;2023-04-03T04:11:51;8.90;99.90
22235;DHT22;11286;45.596;5.284;2023-04-03T04:14:17;8.80;99.90
22235;DHT22;11286;45.596;5.284;2023-04-03T04:16:43;8.80;99.90
22235;DHT22;11286;45.596;5.284;2023-04-03T04:19:09;8.90;99.90
22235;DHT22;11286;45.596;5.284;2023-04-03T04:21:35;8.90;99.90
22235;DHT22;11286;45.596;5.284;2023-04-03T04:24:01;8.80;99.90
22235;DHT22;11286;45.596;5.284;2023-04-03T04:26:26;8.70;99.90
22235;DHT22;11286;45.596;5.284;2023-04-03T04:28:52;8.80;99.90
22235;DHT22;11286;45.596;5.284;2023-04-03T04:31:17;8.60;99.90
22235;DHT22;11286;45.596;5.284;2023-04-03T04:33:43;8.60;99.90
22235;DHT22;11286;45.596;5.284;2023-04-03T04:36:08;8.80;99.90
22235;DHT22;11286;45.596;5.284;2023-04-03T04:38:34;8.90;99.90
22235;DHT22;11286;45.596;5.284;2023-04-03T04:41:00;8.90;99.90
22235;DHT22;11286;45.596;5.284;2023-04-03T04:43:26;9.00;99.90
22235;DHT22;11286;45.596;5.284;2023-04-03T04:46:02;8.90;99.90
22235;DHT22;11286;45.596;5.284;2023-04-03T04:48:27;9.00;99.90
22235;DHT22;11286;45.596;5.284;2023-04-03T04:50:53;8.90;99.90
22235;DHT22;11286;45.596;5.284;2023-04-03T04:53:18;9.00;99.90
22235;DHT22;11286;45.596;5.284;2023-04-03T04:55:44;9.00;99.90
22235;DHT22;11286;45.596;5.284;2023-04-03T04:58:10;9.00;99.90
22235;DHT22;11286;45.596;5.284;2023-04-03T05:00:35;8.90;99.90
22235;DHT22;11286;45.596;5.284;2023-04-03T05:03:01;8.80;99.90
22235;DHT22;11286;45.596;5.284;2023-04-03T05:05:26;9.00;99.90
22235;DHT22;11286;45.596;5.284;2023-04-03T05:07:52;9.00;99.90
22235;DHT22;11286;45.596;5.284;2023-04-03T05:10:17;8.80;99.90
22235;DHT22;11286;45.596;5.284;2023-04-03T05:12:43;8.90;99.90
22235;DHT22;11286;45.596;5.284;2023-04-03T05:15:09;9.20;99.90
22235;DHT22;11286;45.596;5.284;2023-04-03T05:17:35;8.90;99.90
22235;DHT22;11286;45.596;5.284;2023-04-03T05:20:01;8.80;99.90
22235;DHT22;11286;45.596;5.284;2023-04-03T05:22:26;8.80;99.90
22235;DHT22;11286;45.596;5.284;2023-04-03T05:24:52;8.80;99.90
22235;DHT22;11286;45.596;5.284;2023-04-03T05:27:17;8.90;99.90
22235;DHT22;11286;45.596;5.284;2023-04-03T05:29:43;9.00;99.90
22235;DHT22;11286;45.596;5.284;2023-04-03T05:32:10;9.10;99.90
22235;DHT22;11286;45.596;5.284;2023-04-03T05:34:36;8.90;99.90
22235;DHT22;11286;45.596;5.284;2023-04-03T05:37:01;8.90;99.90
22235;DHT22;11286;45.596;5.284;2023-04-03T05:39:28;9.00;99.90
22235;DHT22;11286;45.596;5.284;2023-04-03T05:41:54;8.80;99.90
22235;DHT22;11286;45.596;5.284;2023-04-03T05:44:19;8.90;99.90
22235;DHT22;11286;45.596;5.284;2023-04-03T05:46:45;9.10;99.90
22235;DHT22;11286;45.596;5.284;2023-04-03T05:49:11;9.10;99.90
22235;DHT22;11286;45.596;5.284;2023-04-03T05:51:37;8.90;99.90
22235;DHT22;11286;45.596;5.284;2023-04-03T05:54:28;9.00;99.90
22235;DHT22;11286;45.596;5.284;2023-04-03T05:56:54;8.90;99.90
22235;DHT22;11286;45.596;5.284;2023-04-03T05:59:20;9.00;99.90
22235;DHT22;11286;45.596;5.284;2023-04-03T06:01:47;9.00;99.90
22235;DHT22;11286;45.596;5.284;2023-04-03T06:04:13;9.10;99.90
22235;DHT22;11286;45.596;5.284;2023-04-03T06:06:53;9.20;99.90
22235;DHT22;11286;45.596;5.284;2023-04-03T06:09:22;9.50;99.90
22235;DHT22;11286;45.596;5.284;2023-04-03T06:11:48;9.20;99.90
22235;DHT22;11286;45.596;5.284;2023-04-03T06:14:14;9.20;99.90
22235;DHT22;11286;45.596;5.284;2023-04-03T06:16:39;9.20;99.90
22235;DHT22;11286;45.596;5.284;2023-04-03T06:19:07;9.30;99.90
22235;DHT22;11286;45.596;5.284;2023-04-03T06:21:33;9.20;99.90
22235;DHT22;11286;45.596;5.284;2023-04-03T06:23:59;9.20;99.90
22235;DHT22;11286;45.596;5.284;2023-04-03T06:26:25;9.20;99.90
22235;DHT22;11286;45.596;5.284;2023-04-03T06:28:51;9.10;99.90
22235;DHT22;11286;45.596;5.284;2023-04-03T06:31:18;9.10;99.90
22235;DHT22;11286;45.596;5.284;2023-04-03T06:33:43;9.10;99.90
22235;DHT22;11286;45.596;5.284;2023-04-03T06:36:10;9.10;99.90
22235;DHT22;11286;45.596;5.284;2023-04-03T06:38:37;9.20;99.90
22235;DHT22;11286;45.596;5.284;2023-04-03T06:41:02;9.20;99.90
22235;DHT22;11286;45.596;5.284;2023-04-03T06:43:28;9.20;99.90
22235;DHT22;11286;45.596;5.284;2023-04-03T06:45:53;9.20;99.90
22235;DHT22;11286;45.596;5.284;2023-04-03T06:48:19;9.80;99.90
22235;DHT22;11286;45.596;5.284;2023-04-03T06:50:45;9.40;99.90
22235;DHT22;11286;45.596;5.284;2023-04-03T06:53:10;9.50;99.90
22235;DHT22;11286;45.596;5.284;2023-04-03T06:55:37;9.40;99.90
22235;DHT22;11286;45.596;5.284;2023-04-03T06:58:03;9.60;99.90
22235;DHT22;11286;45.596;5.284;2023-04-03T07:00:29;9.50;99.90
22235;DHT22;11286;45.596;5.284;2023-04-03T07:02:55;9.50;99.90
22235;DHT22;11286;45.596;5.284;2023-04-03T07:05:23;9.60;99.90
22235;DHT22;11286;45.596;5.284;2023-04-03T07:07:49;10.20;99.90
22235;DHT22;11286;45.596;5.284;2023-04-03T07:10:15;10.80;99.90
22235;DHT22;11286;45.596;5.284;2023-04-03T07:12:41;10.70;99.90
22235;DHT22;11286;45.596;5.284;2023-04-03T07:15:08;11.30;99.90
22235;DHT22;11286;45.596;5.284;2023-04-03T07:17:34;10.90;99.90
22235;DHT22;11286;45.596;5.284;2023-04-03T07:20:01;10.90;99.90
22235;DHT22;11286;45.596;5.284;2023-04-03T07:22:27;12.00;99.90
22235;DHT22;11286;45.596;5.284;2023-04-03T07:24:53;11.00;99.90
22235;DHT22;11286;45.596;5.284;2023-04-03T07:27:19;10.40;99.90
22235;DHT22;11286;45.596;5.284;2023-04-03T07:29:45;10.20;99.90
22235;DHT22;11286;45.596;5.284;2023-04-03T07:32:10;9.90;99.90
22235;DHT22;11286;45.596;5.284;2023-04-03T07:34:36;9.90;99.90
22235;DHT22;11286;45.596;5.284;2023-04-03T07:37:02;9.90;99.90
22235;DHT22;11286;45.596;5.284;2023-04-03T07:39:28;10.00;99.90
22235;DHT22;11286;45.596;5.284;2023-04-03T07:41:54;9.80;99.90
22235;DHT22;11286;45.596;5.284;2023-04-03T07:44:24;9.90;99.90
22235;DHT22;11286;45.596;5.284;2023-04-03T07:46:49;9.80;99.90
22235;DHT22;11286;45.596;5.284;2023-04-03T07:49:16;9.80;99.90
22235;DHT22;11286;45.596;5.284;2023-04-03T07:51:44;9.80;99.90
22235;DHT22;11286;45.596;5.284;2023-04-03T07:54:10;9.90;99.90
22235;DHT22;11286;45.596;5.284;2023-04-03T07:56:36;10.10;99.90
22235;DHT22;11286;45.596;5.284;2023-04-03T07:59:02;10.30;99.90
22235;DHT22;11286;45.596;5.284;2023-04-03T08:01:28;10.20;99.90
22235;DHT22;11286;45.596;5.284;2023-04-03T08:03:54;10.20;99.90
22235;DHT22;11286;45.596;5.284;2023-04-03T08:06:19;10.10;99.90
22235;DHT22;11286;45.596;5.284;2023-04-03T08:08:45;10.10;99.90
22235;DHT22;11286;45.596;5.284;2023-04-03T08:11:11;9.90;99.90
22235;DHT22;11286;45.596;5.284;2023-04-03T08:13:37;10.30;99.90
22235;DHT22;11286;45.596;5.284;2023-04-03T08:16:20;9.90;99.90
22235;DHT22;11286;45.596;5.284;2023-04-03T08:18:47;10.10;99.90
22235;DHT22;11286;45.596;5.284;2023-04-03T08:21:13;10.30;99.90
22235;DHT22;11286;45.596;5.284;2023-04-03T08:23:40;9.90;99.90
22235;DHT22;11286;45.596;5.284;2023-04-03T08:26:14;10.10;99.90
22235;DHT22;11286;45.596;5.284;2023-04-03T08:28:41;10.40;99.90
22235;DHT22;11286;45.596;5.284;2023-04-03T08:31:09;10.50;99.90
22235;DHT22;11286;45.596;5.284;2023-04-03T08:33:36;10.70;99.90
22235;DHT22;11286;45.596;5.284;2023-04-03T08:36:07;10.80;99.90
22235;DHT22;11286;45.596;5.284;2023-04-03T08:38:33;10.40;99.90
22235;DHT22;11286;45.596;5.284;2023-04-03T08:44:13;10.40;99.90
22235;DHT22;11286;45.596;5.284;2023-04-03T08:49:33;10.40;99.90
22235;DHT22;11286;45.596;5.284;2023-04-03T08:52:04;10.30;99.90
22235;DHT22;11286;45.596;5.284;2023-04-03T08:54:35;10.20;99.90
22235;DHT22;11286;45.596;5.284;2023-04-03T08:57:05;10.50;99.90
22235;DHT22;11286;45.596;5.284;2023-04-03T08:59:34;10.70;99.90
22235;DHT22;11286;45.596;5.284;2023-04-03T09:02:04;10.60;99.90
22235;DHT22;11286;45.596;5.284;2023-04-03T09:04:41;10.80;99.90
22235;DHT22;11286;45.596;5.284;2023-04-03T09:07:17;11.00;99.90
22235;DHT22;11286;45.596;5.284;2023-04-03T09:09:46;10.40;99.90
22235;DHT22;11286;45.596;5.284;2023-04-03T09:12:46;10.00;99.90
22235;DHT22;11286;45.596;5.284;2023-04-03T09:15:20;10.40;99.90
22235;DHT22;11286;45.596;5.284;2023-04-03T09:18:04;10.70;99.90
22235;DHT22;11286;45.596;5.284;2023-04-03T09:22:57;10.90;99.90
22235;DHT22;11286;45.596;5.284;2023-04-03T09:25:33;10.80;99.90
22235;DHT22;11286;45.596;5.284;2023-04-03T09:28:00;10.70;99.90
22235;DHT22;11286;45.596;5.284;2023-04-03T09:30:27;10.60;99.90
22235;DHT22;11286;45.596;5.284;2023-04-03T09:32:55;10.60;99.90
22235;DHT22;11286;45.596;5.284;2023-04-03T09:40:43;10.60;99.90
22235;DHT22;11286;45.596;5.284;2023-04-03T09:43:30;10.80;99.90
22235;DHT22;11286;45.596;5.284;2023-04-03T09:46:15;10.60;99.90
22235;DHT22;11286;45.596;5.284;2023-04-03T09:48:55;10.60;99.90
22235;DHT22;11286;45.596;5.284;2023-04-03T09:51:25;10.50;99.90
22235;DHT22;11286;45.596;5.284;2023-04-03T09:53:53;10.80;99.90
22235;DHT22;11286;45.596;5.284;2023-04-03T09:56:23;11.10;99.90
22235;DHT22;11286;45.596;5.284;2023-04-03T10:01:35;11.00;99.90
22235;DHT22;11286;45.596;5.284;2023-04-03T10:06:32;10.80;99.90
22235;DHT22;11286;45.596;5.284;2023-04-03T10:09:00;11.00;99.90
22235;DHT22;11286;45.596;5.284;2023-04-03T10:11:26;10.70;99.90
22235;DHT22;11286;45.596;5.284;2023-04-03T10:13:57;10.90;99.90
22235;DHT22;11286;45.596;5.284;2023-04-03T10:16:36;10.60;99.90
22235;DHT22;11286;45.596;5.284;2023-04-03T10:19:37;10.70;99.90
22235;DHT22;11286;45.596;5.284;2023-04-03T10:27:18;10.50;99.90
22235;DHT22;11286;45.596;5.284;2023-04-03T10:35:20;10.30;99.90
22235;DHT22;11286;45.596;5.284;2023-04-03T10:40:30;10.50;99.90
22235;DHT22;11286;45.596;5.284;2023-04-03T10:54:11;10.40;99.90
22235;DHT22;11286;45.596;5.284;2023-04-03T10:56:50;10.40;99.90
22235;DHT22;11286;45.596;5.284;2023-04-03T10:59:43;10.30;99.90
22235;DHT22;11286;45.596;5.284;2023-04-03T11:04:53;10.10;99.90
22235;DHT22;11286;45.596;5.284;2023-04-03T11:07:26;10.20;99.90
22235;DHT22;11286;45.596;5.284;2023-04-03T11:09:58;10.20;99.90
22235;DHT22;11286;45.596;5.284;2023-04-03T11:12:43;10.10;99.90
22235;DHT22;11286;45.596;5.284;2023-04-03T11:15:16;10.30;99.90
22235;DHT22;11286;45.596;5.284;2023-04-03T11:17:55;10.20;99.90
22235;DHT22;11286;45.596;5.284;2023-04-03T11:20:32;10.20;99.90
22235;DHT22;11286;45.596;5.284;2023-04-03T11:23:04;10.30;99.90
22235;DHT22;11286;45.596;5.284;2023-04-03T11:25:33;9.90;99.90
22235;DHT22;11286;45.596;5.284;2023-04-03T11:28:05;10.00;99.90
22235;DHT22;11286;45.596;5.284;2023-04-03T11:35:34;10.00;99.90
22235;DHT22;11286;45.596;5.284;2023-04-03T11:38:02;9.90;99.90
22235;DHT22;11286;45.596;5.284;2023-04-03T11:40:35;10.00;99.90
22235;DHT22;11286;45.596;5.284;2023-04-03T11:48:02;10.20;99.90
22235;DHT22;11286;45.596;5.284;2023-04-03T11:58:26;10.60;99.90
22235;DHT22;11286;45.596;5.284;2023-04-03T12:01:02;10.30;99.90
22235;DHT22;11286;45.596;5.284;2023-04-03T12:16:05;10.70;99.90
22235;DHT22;11286;45.596;5.284;2023-04-03T12:21:02;10.10;99.90
22235;DHT22;11286;45.596;5.284;2023-04-03T12:23:34;10.00;99.90
22235;DHT22;11286;45.596;5.284;2023-04-03T12:26:20;10.30;99.90
22235;DHT22;11286;45.596;5.284;2023-04-03T12:28:48;10.30;99.90
22235;DHT22;11286;45.596;5.284;2023-04-03T12:31:15;10.40;99.90
22235;DHT22;11286;45.596;5.284;2023-04-03T12:44:37;10.00;99.90
22235;DHT22;11286;45.596;5.284;2023-04-03T12:49:53;10.20;99.90
22235;DHT22;11286;45.596;5.284;2023-04-03T12:52:37;10.50;99.90
22235;DHT22;11286;45.596;5.284;2023-04-03T12:55:14;10.30;99.90
22235;DHT22;11286;45.596;5.284;2023-04-03T12:57:40;10.20;99.90
22235;DHT22;11286;45.596;5.284;2023-04-03T13:00:29;10.30;99.90
22235;DHT22;11286;45.596;5.284;2023-04-03T13:02:56;10.20;99.90
22235;DHT22;11286;45.596;5.284;2023-04-03T13:05:22;10.30;99.90
22235;DHT22;11286;45.596;5.284;2023-04-03T13:07:52;10.70;99.90
22235;DHT22;11286;45.596;5.284;2023-04-03T13:10:19;10.80;99.90
22235;DHT22;11286;45.596;5.284;2023-04-03T13:12:50;10.50;99.90
22235;DHT22;11286;45.596;5.284;2023-04-03T13:15:20;10.80;99.90
22235;DHT22;11286;45.596;5.284;2023-04-03T13:17:46;10.70;99.90
22235;DHT22;11286;45.596;5.284;2023-04-03T13:20:23;10.90;99.90
22235;DHT22;11286;45.596;5.284;2023-04-03T13:22:53;11.10;99.90
22235;DHT22;11286;45.596;5.284;2023-04-03T13:25:21;11.20;99.90
22235;DHT22;11286;45.596;5.284;2023-04-03T13:27:48;11.20;99.90
22235;DHT22;11286;45.596;5.284;2023-04-03T13:30:33;10.90;99.90
22235;DHT22;11286;45.596;5.284;2023-04-03T13:33:02;11.20;99.90
22235;DHT22;11286;45.596;5.284;2023-04-03T13:35:36;11.80;99.90
22235;DHT22;11286;45.596;5.284;2023-04-03T13:38:24;12.00;99.90
22235;DHT22;11286;45.596;5.284;2023-04-03T13:40:53;12.50;99.90
22235;DHT22;11286;45.596;5.284;2023-04-03T13:43:25;12.20;99.90
22235;DHT22;11286;45.596;5.284;2023-04-03T13:48:23;12.00;99.90
22235;DHT22;11286;45.596;5.284;2023-04-03T13:50:59;12.00;99.90
22235;DHT22;11286;45.596;5.284;2023-04-03T13:53:26;12.20;99.90
22235;DHT22;11286;45.596;5.284;2023-04-03T13:58:25;12.20;99.90
22235;DHT22;11286;45.596;5.284;2023-04-03T14:00:56;12.30;99.90
22235;DHT22;11286;45.596;5.284;2023-04-03T14:03:44;12.40;99.90
22235;DHT22;11286;45.596;5.284;2023-04-03T14:06:15;12.40;99.90
22235;DHT22;11286;45.596;5.284;2023-04-03T14:08:42;11.90;99.90
22235;DHT22;11286;45.596;5.284;2023-04-03T14:11:16;11.90;99.90
22235;DHT22;11286;45.596;5.284;2023-04-03T14:13:43;11.70;99.90
22235;DHT22;11286;45.596;5.284;2023-04-03T14:16:13;11.80;99.90
22235;DHT22;11286;45.596;5.284;2023-04-03T14:18:40;11.90;99.90
22235;DHT22;11286;45.596;5.284;2023-04-03T14:21:06;11.90;99.90
22235;DHT22;11286;45.596;5.284;2023-04-03T14:23:31;12.00;99.90
22235;DHT22;11286;45.596;5.284;2023-04-03T14:25:58;12.00;99.90
22235;DHT22;11286;45.596;5.284;2023-04-03T14:28:25;12.10;99.90
22235;DHT22;11286;45.596;5.284;2023-04-03T14:30:51;12.40;99.90
22235;DHT22;11286;45.596;5.284;2023-04-03T14:33:20;12.00;99.90
22235;DHT22;11286;45.596;5.284;2023-04-03T14:35:47;11.80;99.90
22235;DHT22;11286;45.596;5.284;2023-04-03T14:40:47;11.80;99.90
22235;DHT22;11286;45.596;5.284;2023-04-03T14:43:13;12.00;99.90
22235;DHT22;11286;45.596;5.284;2023-04-03T14:45:39;11.90;99.90
22235;DHT22;11286;45.596;5.284;2023-04-03T14:48:06;11.80;99.90
22235;DHT22;11286;45.596;5.284;2023-04-03T14:50:35;11.70;99.90
22235;DHT22;11286;45.596;5.284;2023-04-03T14:53:00;12.10;99.90
22235;DHT22;11286;45.596;5.284;2023-04-03T14:55:26;11.70;99.90
22235;DHT22;11286;45.596;5.284;2023-04-03T14:57:53;11.80;99.90
22235;DHT22;11286;45.596;5.284;2023-04-03T15:00:21;11.70;99.90
22235;DHT22;11286;45.596;5.284;2023-04-03T15:02:48;11.70;99.90
22235;DHT22;11286;45.596;5.284;2023-04-03T15:05:14;11.80;99.90
22235;DHT22;11286;45.596;5.284;2023-04-03T15:07:42;11.70;99.90
22235;DHT22;11286;45.596;5.284;2023-04-03T15:12:40;11.50;99.90
22235;DHT22;11286;45.596;5.284;2023-04-03T15:15:06;11.50;99.90
22235;DHT22;11286;45.596;5.284;2023-04-03T15:17:32;11.50;99.90
22235;DHT22;11286;45.596;5.284;2023-04-03T15:19:59;11.40;99.90
22235;DHT22;11286;45.596;5.284;2023-04-03T15:22:25;11.40;99.90
22235;DHT22;11286;45.596;5.284;2023-04-03T15:24:50;11.40;99.90
22235;DHT22;11286;45.596;5.284;2023-04-03T15:27:16;11.40;99.90
22235;DHT22;11286;45.596;5.284;2023-04-03T15:29:42;11.40;99.90
22235;DHT22;11286;45.596;5.284;2023-04-03T15:32:09;11.60;99.90
22235;DHT22;11286;45.596;5.284;2023-04-03T15:34:35;11.40;99.90
22235;DHT22;11286;45.596;5.284;2023-04-03T15:37:00;11.50;99.90
22235;DHT22;11286;45.596;5.284;2023-04-03T15:39:26;11.40;99.90
22235;DHT22;11286;45.596;5.284;2023-04-03T15:41:53;11.60;99.90
22235;DHT22;11286;45.596;5.284;2023-04-03T15:44:19;11.60;99.90
22235;DHT22;11286;45.596;5.284;2023-04-03T15:46:46;11.40;99.90
22235;DHT22;11286;45.596;5.284;2023-04-03T15:49:12;11.40;99.90
22235;DHT22;11286;45.596;5.284;2023-04-03T15:51:38;11.50;99.90
22235;DHT22;11286;45.596;5.284;2023-04-03T15:54:04;11.40;99.90
22235;DHT22;11286;45.596;5.284;2023-04-03T15:56:30;11.40;99.90
22235;DHT22;11286;45.596;5.284;2023-04-03T15:58:55;11.40;99.90
22235;DHT22;11286;45.596;5.284;2023-04-03T16:01:21;11.40;99.90
22235;DHT22;11286;45.596;5.284;2023-04-03T16:03:47;11.40;99.90
22235;DHT22;11286;45.596;5.284;2023-04-03T16:06:14;11.70;99.90
22235;DHT22;11286;45.596;5.284;2023-04-03T16:08:41;11.60;99.90
22235;DHT22;11286;45.596;5.284;2023-04-03T16:11:07;11.60;99.90
22235;DHT22;11286;45.596;5.284;2023-04-03T16:13:33;11.60;99.90
22235;DHT22;11286;45.596;5.284;2023-04-03T16:16:00;11.50;99.90
22235;DHT22;11286;45.596;5.284;2023-04-03T16:18:27;11.50;99.90
22235;DHT22;11286;45.596;5.284;2023-04-03T16:20:53;11.20;99.90
22235;DHT22;11286;45.596;5.284;2023-04-03T16:23:19;11.10;99.90
22235;DHT22;11286;45.596;5.284;2023-04-03T16:25:44;11.10;99.90
22235;DHT22;11286;45.596;5.284;2023-04-03T16:28:14;11.10;99.90
22235;DHT22;11286;45.596;5.284;2023-04-03T16:30:41;11.00;99.90
22235;DHT22;11286;45.596;5.284;2023-04-03T16:33:08;10.90;99.90
22235;DHT22;11286;45.596;5.284;2023-04-03T16:35:34;11.10;99.90
22235;DHT22;11286;45.596;5.284;2023-04-03T16:37:59;11.00;99.90
22235;DHT22;11286;45.596;5.284;2023-04-03T16:40:25;11.20;99.90
22235;DHT22;11286;45.596;5.284;2023-04-03T16:42:51;11.20;99.90
22235;DHT22;11286;45.596;5.284;2023-04-03T16:45:16;11.40;99.90
22235;DHT22;11286;45.596;5.284;2023-04-03T16:47:42;11.50;99.90
22235;DHT22;11286;45.596;5.284;2023-04-03T16:50:08;11.50;99.90
22235;DHT22;11286;45.596;5.284;2023-04-03T16:52:34;11.50;99.90
22235;DHT22;11286;45.596;5.284;2023-04-03T16:55:00;11.30;99.90
22235;DHT22;11286;45.596;5.284;2023-04-03T16:57:26;11.30;99.90
22235;DHT22;11286;45.596;5.284;2023-04-03T16:59:52;11.70;99.90
22235;DHT22;11286;45.596;5.284;2023-04-03T17:02:19;12.00;99.90
22235;DHT22;11286;45.596;5.284;2023-04-03T17:04:45;12.10;99.90
22235;DHT22;11286;45.596;5.284;2023-04-03T17:07:10;12.20;99.90
22235;DHT22;11286;45.596;5.284;2023-04-03T17:09:36;12.30;99.90
22235;DHT22;11286;45.596;5.284;2023-04-03T17:12:03;12.30;99.90
22235;DHT22;11286;45.596;5.284;2023-04-03T17:14:29;12.30;99.90
22235;DHT22;11286;45.596;5.284;2023-04-03T17:16:54;12.20;99.90
22235;DHT22;11286;45.596;5.284;2023-04-03T17:19:20;11.90;99.90
22235;DHT22;11286;45.596;5.284;2023-04-03T17:21:47;12.00;99.90
22235;DHT22;11286;45.596;5.284;2023-04-03T17:24:13;12.10;99.90
22235;DHT22;11286;45.596;5.284;2023-04-03T17:26:40;12.10;99.90
22235;DHT22;11286;45.596;5.284;2023-04-03T17:29:06;11.90;99.90
22235;DHT22;11286;45.596;5.284;2023-04-03T17:31:33;11.50;99.90
22235;DHT22;11286;45.596;5.284;2023-04-03T17:33:58;11.80;99.90